Time,TemperatureF,DewpointF,PressureIn,WindDirection,WindDirectionDegrees,WindSpeedMPH,WindSpeedGustMPH,Humidity,HourlyPrecipIn,Conditions,Clouds,dailyrainin,SoftwareType,DateUTC
2013-09-13 00:09:00,60.4,60.1,29.78,SSE,157,0.0,-999.0,99,-99.99,,,0.00,Acu-Link.com,2013-09-13 04:09:00,
2013-09-13 00:24:00,59.9,59.6,29.78,ESE,112,0.0,-999.0,99,-99.99,,,0.00,Acu-Link.com,2013-09-13 04:24:00,
2013-09-13 00:39:00,58.8,58.5,29.79,South,180,0.0,-999.0,99,-99.99,,,0.00,Acu-Link.com,2013-09-13 04:39:00,
2013-09-13 00:55:00,58.1,57.8,29.79,SW,225,2.2,-999.0,99,-99.99,,,0.00,Acu-Link.com,2013-09-13 04:55:00,
2013-09-13 01:10:00,57.4,57.1,29.79,NNE,22,2.7,-999.0,99,-99.99,,,0.00,Acu-Link.com,2013-09-13 05:10:00,
2013-09-13 01:25:00,57.0,56.7,29.79,SW,225,0.0,-999.0,99,-99.99,,,0.00,Acu-Link.com,2013-09-13 05:25:00,
2013-09-13 01:40:00,56.5,56.2,29.79,ENE,67,1.1,-999.0,99,-99.99,,,0.00,Acu-Link.com,2013-09-13 05:40:00,
2013-09-13 01:55:00,56.3,56.0,29.79,NNE,22,0.0,-999.0,99,-99.99,,,0.00,Acu-Link.com,2013-09-13 05:55:00,
2013-09-13 02:11:00,56.1,55.8,29.79,SW,225,0.0,-999.0,99,-99.99,,,0.00,Acu-Link.com,2013-09-13 06:11:00,
2013-09-13 02:26:00,55.9,55.6,29.81,NNE,22,0.0,-999.0,99,-99.99,,,0.00,Acu-Link.com,2013-09-13 06:26:00,
2013-09-13 02:41:00,55.9,55.6,29.80,North,0,0.0,-999.0,99,-99.99,,,0.00,Acu-Link.com,2013-09-13 06:41:00,
2013-09-13 02:56:00,55.6,55.3,29.80,SSE,157,0.0,-999.0,99,-99.99,,,0.00,Acu-Link.com,2013-09-13 06:56:00,
2013-09-13 03:12:00,55.8,55.5,29.79,NW,315,1.1,-999.0,99,-99.99,,,0.00,Acu-Link.com,2013-09-13 07:12:00,
2013-09-13 03:27:00,55.8,55.5,29.80,NNW,337,0.0,-999.0,99,-99.99,,,0.00,Acu-Link.com,2013-09-13 07:27:00,
2013-09-13 03:42:00,55.8,55.5,29.79,WNW,292,3.2,-999.0,99,-99.99,,,0.00,Acu-Link.com,2013-09-13 07:42:00,
2013-09-13 03:57:00,55.4,55.1,29.79,WSW,247,2.2,-999.0,99,-99.99,,,0.00,Acu-Link.com,2013-09-13 07:57:00,
2013-09-13 04:13:00,55.0,54.7,29.79,NNW,337,1.7,-999.0,99,-99.99,,,0.00,Acu-Link.com,2013-09-13 08:13:00,
2013-09-13 04:28:00,55.0,54.7,29.78,NNE,22,2.2,-999.0,99,-99.99,,,0.00,Acu-Link.com,2013-09-13 08:28:00,
2013-09-13 04:43:00,54.7,54.4,29.78,NNW,337,0.0,-999.0,99,-99.99,,,0.00,Acu-Link.com,2013-09-13 08:43:00,
2013-09-13 04:58:00,54.7,54.4,29.79,WNW,292,0.0,-999.0,99,-99.99,,,0.00,Acu-Link.com,2013-09-13 08:58:00,
2013-09-13 05:13:00,54.3,54.0,29.78,WNW,292,0.0,-999.0,99,-99.99,,,0.00,Acu-Link.com,2013-09-13 09:13:00,
2013-09-13 05:28:00,54.1,53.8,29.78,West,270,0.0,-999.0,99,-99.99,,,0.01,Acu-Link.com,2013-09-13 09:28:00,
2013-09-13 05:44:00,54.0,53.7,29.78,SSW,202,0.0,-999.0,99,-99.99,,,0.01,Acu-Link.com,2013-09-13 09:44:00,
2013-09-13 05:59:00,53.8,53.5,29.78,South,180,0.0,-999.0,99,-99.99,,,0.01,Acu-Link.com,2013-09-13 09:59:00,
2013-09-13 06:14:00,53.1,52.8,29.78,SSW,202,0.0,-999.0,99,-99.99,,,0.01,Acu-Link.com,2013-09-13 10:14:00,
2013-09-13 06:30:00,52.3,52.0,29.79,SSE,157,0.0,-999.0,99,-99.99,,,0.01,Acu-Link.com,2013-09-13 10:30:00,
2013-09-13 06:45:00,51.8,51.5,29.80,SSE,157,0.0,-999.0,99,-99.99,,,0.01,Acu-Link.com,2013-09-13 10:45:00,
2013-09-13 07:00:00,52.2,51.9,29.80,West,270,0.0,-999.0,99,-99.99,,,0.01,Acu-Link.com,2013-09-13 11:00:00,
2013-09-13 07:15:00,51.6,51.3,29.81,SW,225,0.0,-999.0,99,-99.99,,,0.01,Acu-Link.com,2013-09-13 11:15:00,
2013-09-13 07:30:00,52.3,52.0,29.82,WNW,292,3.2,-999.0,99,-99.99,,,0.01,Acu-Link.com,2013-09-13 11:30:00,
2013-09-13 07:46:00,53.1,52.8,29.83,SW,225,3.2,-999.0,99,-99.99,,,0.01,Acu-Link.com,2013-09-13 11:46:00,
2013-09-13 08:01:00,53.1,52.8,29.83,WNW,292,2.7,-999.0,99,-99.99,,,0.01,Acu-Link.com,2013-09-13 12:01:00,
2013-09-13 08:16:00,54.0,53.7,29.83,NNW,337,3.2,-999.0,99,-99.99,,,0.01,Acu-Link.com,2013-09-13 12:16:00,
2013-09-13 08:31:00,54.0,53.7,29.83,NNW,337,2.2,-999.0,99,-99.99,,,0.01,Acu-Link.com,2013-09-13 12:31:00,
2013-09-13 08:46:00,54.5,54.2,29.83,NW,315,2.2,-999.0,99,-99.99,,,0.01,Acu-Link.com,2013-09-13 12:46:00,
2013-09-13 09:02:00,55.0,54.7,29.83,West,270,3.2,-999.0,99,-99.99,,,0.01,Acu-Link.com,2013-09-13 13:02:00,
2013-09-13 09:17:00,55.4,55.1,29.83,North,0,1.1,-999.0,99,-99.99,,,0.01,Acu-Link.com,2013-09-13 13:17:00,
2013-09-13 09:32:00,56.5,56.2,29.83,West,270,2.7,-999.0,99,-99.99,,,0.01,Acu-Link.com,2013-09-13 13:32:00,
2013-09-13 09:47:00,56.3,55.5,29.84,West,270,6.3,-999.0,97,-99.99,,,0.01,Acu-Link.com,2013-09-13 13:47:00,
2013-09-13 10:02:00,56.7,55.3,29.84,NNW,337,5.8,-999.0,95,-99.99,,,0.01,Acu-Link.com,2013-09-13 14:02:00,
2013-09-13 10:18:00,57.4,55.7,29.84,NNE,22,3.2,-999.0,94,-99.99,,,0.01,Acu-Link.com,2013-09-13 14:18:00,
2013-09-13 10:33:00,57.7,55.1,29.84,West,270,3.7,-999.0,91,-99.99,,,0.01,Acu-Link.com,2013-09-13 14:33:00,
2013-09-13 10:48:00,59.2,56.3,29.84,West,270,7.3,-999.0,90,-99.99,,,0.01,Acu-Link.com,2013-09-13 14:48:00,
2013-09-13 11:03:00,58.6,55.4,29.84,West,270,5.3,-999.0,89,-99.99,,,0.01,Acu-Link.com,2013-09-13 15:03:00,
2013-09-13 11:19:00,57.6,55.6,29.85,South,180,3.7,-999.0,93,-99.99,,,0.01,Acu-Link.com,2013-09-13 15:19:00,
2013-09-13 11:34:00,59.7,56.8,29.84,West,270,4.7,-999.0,90,-99.99,,,0.01,Acu-Link.com,2013-09-13 15:34:00,
2013-09-13 11:50:00,60.4,56.2,29.84,SE,135,3.2,-999.0,86,-99.99,,,0.01,Acu-Link.com,2013-09-13 15:50:00,
2013-09-13 12:05:00,60.6,56.4,29.84,SSE,157,5.8,-999.0,86,-99.99,,,0.01,Acu-Link.com,2013-09-13 16:05:00,
2013-09-13 12:20:00,61.0,55.5,29.84,ESE,112,4.2,-999.0,82,-99.99,,,0.01,Acu-Link.com,2013-09-13 16:20:00,
2013-09-13 12:35:00,61.3,55.4,29.84,SW,225,4.2,-999.0,81,-99.99,,,0.01,Acu-Link.com,2013-09-13 16:35:00,
2013-09-13 12:50:00,62.8,54.8,29.84,West,270,5.3,-999.0,75,-99.99,,,0.01,Acu-Link.com,2013-09-13 16:50:00,
2013-09-13 13:06:00,62.1,53.7,29.84,WNW,292,4.7,-999.0,74,-99.99,,,0.01,Acu-Link.com,2013-09-13 17:06:00,
2013-09-13 13:21:00,60.6,54.4,29.84,West,270,2.2,-999.0,80,-99.99,,,0.01,Acu-Link.com,2013-09-13 17:21:00,
2013-09-13 14:15:00,60.3,53.8,29.84,WNW,292,4.7,-999.0,79,-99.99,,,0.01,Acu-Link.com,2013-09-13 18:15:00,
2013-09-13 14:30:00,58.1,54.2,29.85,NW,315,2.7,-999.0,87,-99.99,,,0.01,Acu-Link.com,2013-09-13 18:30:00,
2013-09-13 14:45:00,56.5,55.7,29.84,WNW,292,1.1,-999.0,97,-99.99,,,0.02,Acu-Link.com,2013-09-13 18:45:00,
2013-09-13 15:01:00,56.3,56.0,29.84,WSW,247,3.2,-999.0,99,-99.99,,,0.02,Acu-Link.com,2013-09-13 19:01:00,
2013-09-13 15:16:00,58.1,57.8,29.83,NW,315,2.2,-999.0,99,-99.99,,,0.02,Acu-Link.com,2013-09-13 19:16:00,
2013-09-13 15:31:00,61.7,60.0,29.82,East,90,4.2,-999.0,94,-99.99,,,0.02,Acu-Link.com,2013-09-13 19:31:00,
2013-09-13 15:46:00,59.2,56.9,29.84,NNE,22,2.7,-999.0,92,-99.99,,,0.02,Acu-Link.com,2013-09-13 19:46:00,
2013-09-13 16:02:00,56.5,56.2,29.85,West,270,5.3,-999.0,99,-99.99,,,0.02,Acu-Link.com,2013-09-13 20:02:00,
2013-09-13 16:17:00,57.4,55.7,29.85,WNW,292,5.8,-999.0,94,-99.99,,,0.02,Acu-Link.com,2013-09-13 20:17:00,
2013-09-13 16:32:00,55.9,54.8,29.87,West,270,3.2,-999.0,96,-99.99,,,0.02,Acu-Link.com,2013-09-13 20:32:00,
2013-09-13 16:47:00,54.5,52.8,29.87,NNE,22,4.7,-999.0,94,-99.99,,,0.02,Acu-Link.com,2013-09-13 20:47:00,
2013-09-13 17:03:00,54.3,53.2,29.87,West,270,3.7,-999.0,96,-99.99,,,0.02,Acu-Link.com,2013-09-13 21:03:00,
2013-09-13 17:18:00,53.4,52.3,29.88,ENE,67,5.3,-999.0,96,-99.99,,,0.02,Acu-Link.com,2013-09-13 21:18:00,
2013-09-13 17:33:00,53.4,51.7,29.89,WSW,247,4.2,-999.0,94,-99.99,,,0.02,Acu-Link.com,2013-09-13 21:33:00,
2013-09-13 17:48:00,54.1,51.5,29.88,WNW,292,5.8,-999.0,91,-99.99,,,0.02,Acu-Link.com,2013-09-13 21:48:00,
2013-09-13 18:03:00,53.8,52.1,29.88,West,270,4.2,-999.0,94,-99.99,,,0.02,Acu-Link.com,2013-09-13 22:03:00,
2013-09-13 18:19:00,53.2,51.2,29.89,WNW,292,5.8,-999.0,93,-99.99,,,0.02,Acu-Link.com,2013-09-13 22:19:00,
2013-09-13 18:34:00,54.5,51.9,29.88,West,270,4.2,-999.0,91,-99.99,,,0.02,Acu-Link.com,2013-09-13 22:34:00,
2013-09-13 18:49:00,52.5,50.8,29.89,SW,225,4.7,-999.0,94,-99.99,,,0.02,Acu-Link.com,2013-09-13 22:49:00,
2013-09-13 19:04:00,52.2,51.7,29.89,WNW,292,3.7,-999.0,98,-99.99,,,0.02,Acu-Link.com,2013-09-13 23:04:00,
2013-09-13 19:19:00,52.0,51.5,29.89,West,270,6.3,-999.0,98,-99.99,,,0.02,Acu-Link.com,2013-09-13 23:19:00,
2013-09-13 19:35:00,52.0,51.5,29.90,NW,315,4.7,-999.0,98,-99.99,,,0.02,Acu-Link.com,2013-09-13 23:35:00,
2013-09-13 19:50:00,52.2,51.7,29.90,West,270,4.7,-999.0,98,-99.99,,,0.02,Acu-Link.com,2013-09-13 23:50:00,
2013-09-13 20:05:00,51.6,50.8,29.91,West,270,3.7,-999.0,97,-99.99,,,0.02,Acu-Link.com,2013-09-14 00:05:00,
2013-09-13 20:20:00,51.3,51.0,29.92,WSW,247,3.7,-999.0,99,-99.99,,,0.02,Acu-Link.com,2013-09-14 00:20:00,
2013-09-13 20:36:00,50.5,50.2,29.92,WSW,247,3.7,-999.0,99,-99.99,,,0.02,Acu-Link.com,2013-09-14 00:36:00,
2013-09-13 20:51:00,50.2,49.9,29.93,West,270,5.8,-999.0,99,-99.99,,,0.02,Acu-Link.com,2013-09-14 00:51:00,
2013-09-13 21:06:00,49.5,49.2,29.94,West,270,3.2,-999.0,99,-99.99,,,0.02,Acu-Link.com,2013-09-14 01:06:00,
2013-09-13 21:21:00,48.9,48.6,29.94,NNE,22,3.7,-999.0,99,-99.99,,,0.02,Acu-Link.com,2013-09-14 01:21:00,
2013-09-13 21:36:00,48.7,48.2,29.95,WNW,292,3.7,-999.0,98,-99.99,,,0.02,Acu-Link.com,2013-09-14 01:36:00,
2013-09-13 21:52:00,48.0,47.5,29.95,WSW,247,2.7,-999.0,98,-99.99,,,0.02,Acu-Link.com,2013-09-14 01:52:00,
2013-09-13 22:07:00,47.3,47.0,29.95,West,270,1.7,-999.0,99,-99.99,,,0.02,Acu-Link.com,2013-09-14 02:07:00,
2013-09-13 22:22:00,46.6,46.3,29.95,West,270,2.2,-999.0,99,-99.99,,,0.02,Acu-Link.com,2013-09-14 02:22:00,
2013-09-13 22:37:00,46.0,45.7,29.96,West,270,0.0,-999.0,99,-99.99,,,0.02,Acu-Link.com,2013-09-14 02:37:00,
2013-09-13 22:52:00,45.5,45.2,29.95,WSW,247,2.2,-999.0,99,-99.99,,,0.02,Acu-Link.com,2013-09-14 02:52:00,
2013-09-13 23:08:00,45.1,44.8,29.96,West,270,1.1,-999.0,99,-99.99,,,0.02,Acu-Link.com,2013-09-14 03:08:00,
2013-09-13 23:23:00,45.3,45.0,29.96,West,270,2.7,-999.0,99,-99.99,,,0.02,Acu-Link.com,2013-09-14 03:23:00,
2013-09-13 23:38:00,45.3,45.0,29.95,SE,135,2.2,-999.0,99,-99.99,,,0.02,Acu-Link.com,2013-09-14 03:38:00,
2013-09-13 23:54:00,45.1,44.8,29.95,West,270,5.3,-999.0,99,-99.99,,,0.02,Acu-Link.com,2013-09-14 03:54:00,